Time;durP1;ratioP1;P1;durP2;ratioP2;P2;SDS_P1;SDS_P2;PMS_P1;PMS_P2;Temp;Humidity;BMP_temperature;BMP_pressure;BME280_temperature;BME280_humidity;BME280_pressure;Samples;Min_cycle;Max_cycle;Signal;HPM_P1;HPM_P2
2023/03/29 00:00:58;;;;;;;5.37;3.23;;;3.90;99.90;;;-141.84;61.21;19289.53;5042262;28;20211;-71
2023/03/29 00:03:27;;;;;;;5.47;2.93;;;3.80;99.90;;;-141.84;61.28;19283.44;5051578;28;20543;-72
2023/03/29 00:06:04;;;;;;;5.43;3.80;;;3.80;99.90;;;-141.84;60.89;19269.22;5050711;28;20260;-72
2023/03/29 00:08:33;;;;;;;5.73;3.20;;;3.90;99.90;;;-141.84;60.84;19285.47;5050893;28;20233;-71
2023/03/29 00:11:02;;;;;;;5.57;3.80;;;3.80;99.90;;;-141.84;60.57;19261.06;5050773;28;20319;-71
2023/03/29 00:13:30;;;;;;;6.77;3.50;;;3.80;99.90;;;-141.84;61.03;19252.94;5049868;28;20220;-71
2023/03/29 00:15:58;;;;;;;8.17;3.60;;;3.90;99.90;;;-141.84;61.03;19299.69;5051147;28;20204;-71
2023/03/29 00:18:26;;;;;;;5.17;3.60;;;3.80;99.90;;;-141.84;59.79;19267.16;5050320;28;20215;-72
2023/03/29 00:20:56;;;;;;;6.80;3.40;;;3.90;99.90;;;-141.84;60.22;19265.13;5050198;28;20777;-71
2023/03/29 00:23:26;;;;;;;6.63;3.43;;;4.00;99.90;;;-141.84;58.95;19289.53;5050335;28;20236;-70
2023/03/29 00:25:55;;;;;;;5.07;3.33;;;4.00;99.90;;;-141.84;59.63;19271.25;5050245;28;20228;-71
2023/03/29 00:28:24;;;;;;;4.60;3.60;;;4.00;99.90;;;-141.84;60.03;19279.38;5049528;28;20719;-71
2023/03/29 00:30:52;;;;;;;6.20;3.60;;;4.00;99.90;;;-141.84;60.27;19297.66;5050093;28;20693;-71
2023/03/29 00:33:21;;;;;;;5.63;3.43;;;3.90;99.90;;;-141.84;60.05;19277.34;5054346;28;20214;-70
2023/03/29 00:35:53;;;;;;;10.30;4.10;;;3.90;99.90;;;-141.84;59.90;19261.06;5053906;28;20223;-71
2023/03/29 00:38:21;;;;;;;5.47;3.80;;;3.90;99.90;;;-141.84;60.21;19263.09;5054173;28;20229;-72
2023/03/29 00:40:50;;;;;;;7.20;3.43;;;3.90;99.90;;;-141.84;60.01;19287.50;5054384;28;20229;-72
2023/03/29 00:43:19;;;;;;;5.20;3.30;;;3.90;99.90;;;-141.84;59.51;19273.28;5054173;28;20716;-70
2023/03/29 00:45:47;;;;;;;6.40;3.70;;;3.90;99.90;;;-141.84;59.71;19291.56;5046290;28;20227;-71
2023/03/29 00:48:20;;;;;;;5.37;3.00;;;3.90;99.90;;;-141.84;59.83;19289.53;5043165;28;20305;-71
2023/03/29 00:50:53;;;;;;;6.47;3.10;;;3.90;99.90;;;-141.84;59.20;19285.47;5053380;28;20222;-71
2023/03/29 00:53:27;;;;;;;4.17;2.87;;;3.90;99.90;;;-141.84;59.57;19275.31;5053035;28;20235;-71
2023/03/29 00:56:04;;;;;;;5.60;3.27;;;3.90;99.90;;;-141.84;60.02;19295.63;5052923;28;20225;-72
2023/03/29 00:58:43;;;;;;;6.07;3.27;;;3.90;99.90;;;-141.84;59.98;19271.25;5053302;28;20233;-71
2023/03/29 01:01:19;;;;;;;6.40;3.07;;;3.90;99.90;;;-141.84;59.74;19261.06;5053788;28;20235;-70
2023/03/29 01:03:55;;;;;;;6.33;3.00;;;3.90;99.90;;;-141.84;59.79;19279.38;5052976;28;20229;-71
2023/03/29 01:06:28;;;;;;;6.27;3.07;;;3.90;99.90;;;-141.84;58.28;19332.19;5053974;28;20208;-71
2023/03/29 01:09:01;;;;;;;5.37;3.37;;;4.10;99.90;;;-141.84;58.33;19324.06;5052798;28;20284;-71
2023/03/29 01:11:37;;;;;;;4.47;2.73;;;4.20;99.90;;;-141.84;58.18;19293.59;5053181;28;20724;-71
2023/03/29 01:14:11;;;;;;;5.00;2.87;;;4.20;99.90;;;-141.84;58.15;19332.19;5053186;28;20222;-70
2023/03/29 01:16:39;;;;;;;4.80;3.20;;;4.20;99.90;;;-141.84;58.54;19307.81;5052866;28;20583;-71
2023/03/29 01:19:15;;;;;;;4.63;3.10;;;4.20;99.90;;;-141.84;58.35;19305.78;5049745;28;20237;-72
2023/03/29 01:21:50;;;;;;;4.97;3.23;;;4.20;99.90;;;-141.84;57.96;19320.00;5033562;28;20205;-71
2023/03/29 01:24:47;;;;;;;6.03;3.30;;;4.20;99.90;;;-141.84;58.66;19279.38;5052858;28;20229;-71
2023/03/29 01:27:34;;;;;;;4.83;2.83;;;4.10;99.90;;;-141.84;58.99;19275.31;5053027;28;20213;-71
2023/03/29 01:30:09;;;;;;;5.90;3.13;;;4.10;99.90;;;-141.84;59.38;19285.47;5052431;28;20224;-71
2023/03/29 01:32:47;;;;;;;4.30;2.73;;;4.10;99.90;;;-141.84;58.80;19281.41;5052543;28;20227;-71
2023/03/29 01:35:22;;;;;;;4.90;3.07;;;4.00;99.90;;;-141.84;58.94;19315.94;5052693;28;20326;-71
2023/03/29 01:37:58;;;;;;;9.03;3.07;;;4.00;99.90;;;-141.84;59.30;19301.72;5052960;28;20239;-72
2023/03/29 01:40:27;;;;;;;4.77;3.10;;;4.00;99.90;;;-141.84;58.35;19289.53;5052320;28;20222;-70
2023/03/29 01:43:07;;;;;;;5.07;3.20;;;4.00;99.90;;;-141.84;59.03;19275.31;5051711;28;20210;-71
2023/03/29 01:45:43;;;;;;;4.57;2.63;;;4.00;99.90;;;-141.84;58.23;19317.97;5047540;28;20278;-71
2023/03/29 01:48:24;;;;;;;6.07;2.87;;;4.10;99.90;;;-141.84;59.41;19313.91;5062327;28;20218;-72
2023/03/29 01:50:58;;;;;;;4.70;2.60;;;4.00;99.90;;;-141.84;58.94;19307.81;5073764;28;20283;-71
2023/03/29 01:53:34;;;;;;;5.67;2.90;;;4.00;99.90;;;-141.84;58.61;19324.06;5052124;28;20434;-72
2023/03/29 01:56:11;;;;;;;7.30;3.03;;;4.00;99.90;;;-141.84;58.82;19313.91;5052223;28;20237;-73
2023/03/29 01:58:46;;;;;;;4.77;2.97;;;4.00;99.90;;;-141.84;58.22;19324.06;5051956;28;20248;-71
2023/03/29 02:01:21;;;;;;;4.67;2.60;;;4.20;99.90;;;-141.84;57.67;19336.25;5067400;28;20236;-70
2023/03/29 02:03:55;;;;;;;3.73;2.90;;;4.30;99.90;;;-141.84;58.64;19275.31;5072069;28;20235;-71
2023/03/29 02:06:27;;;;;;;4.57;2.77;;;4.20;99.90;;;-141.84;58.29;19289.53;5072902;28;20636;-70
2023/03/29 02:08:56;;;;;;;5.07;3.07;;;4.20;99.90;;;-141.84;58.02;19305.78;5072629;28;20236;-70
2023/03/29 02:11:28;;;;;;;4.23;2.57;;;4.20;99.90;;;-141.84;58.28;19328.13;5071961;28;20235;-70
2023/03/29 02:13:57;;;;;;;4.87;2.53;;;4.20;99.90;;;-141.84;57.97;19289.53;5072062;28;20221;-71
2023/03/29 02:16:26;;;;;;;7.13;2.67;;;4.10;99.90;;;-141.84;58.18;19313.91;5071915;28;20236;-70
2023/03/29 02:18:57;;;;;;;5.30;2.57;;;4.10;99.90;;;-141.84;58.16;19324.06;5071588;28;20205;-71
2023/03/29 02:21:33;;;;;;;3.37;2.37;;;4.20;99.90;;;-141.84;58.42;19317.97;5071675;28;20673;-71
2023/03/29 02:24:08;;;;;;;5.47;2.50;;;4.20;99.90;;;-141.84;58.28;19315.94;5071254;28;20236;-70
2023/03/29 02:26:36;;;;;;;6.00;2.60;;;4.20;99.90;;;-141.84;58.14;19311.88;5072955;28;20239;-70
2023/03/29 02:29:06;;;;;;;3.07;2.70;;;4.20;99.90;;;-141.84;57.20;19313.91;5074860;28;20230;-71
2023/03/29 02:31:40;;;;;;;2.93;2.23;;;4.20;99.90;;;-141.84;58.24;19313.91;5073365;28;20225;-72
2023/03/29 02:34:20;;;;;;;7.27;2.80;;;4.20;99.90;;;-141.84;57.58;19326.09;5071633;28;20307;-70
2023/03/29 02:36:53;;;;;;;2.90;2.20;;;4.30;99.90;;;-141.84;57.78;19317.97;5071560;28;20185;-72
2023/03/29 02:39:24;;;;;;;4.07;2.73;;;4.30;99.90;;;-141.84;58.00;19317.97;5072083;28;20186;-72
2023/03/29 02:41:56;;;;;;;3.67;2.43;;;4.30;99.90;;;-141.84;58.25;19277.34;5051316;28;20281;-71
2023/03/29 02:44:30;;;;;;;5.57;2.47;;;4.30;99.90;;;-141.84;58.16;19301.72;5061357;28;20314;-70
2023/03/29 02:47:05;;;;;;;6.77;2.50;;;4.20;99.90;;;-141.84;58.82;19285.47;5054807;28;20238;-71
2023/03/29 02:49:33;;;;;;;5.67;3.10;;;4.20;99.90;;;-141.84;58.27;19289.53;5071196;28;20227;-71
2023/03/29 02:52:11;;;;;;;5.03;2.83;;;4.20;99.90;;;-141.84;58.05;19311.88;5070928;28;20727;-72
2023/03/29 02:54:42;;;;;;;4.43;2.70;;;4.30;99.90;;;-141.84;58.25;19313.91;5071206;28;20217;-71
2023/03/29 02:57:11;;;;;;;5.97;2.67;;;4.30;99.90;;;-141.84;58.30;19309.84;5071202;28;20221;-72
2023/03/29 02:59:42;;;;;;;6.37;2.73;;;4.30;99.90;;;-141.84;58.05;19315.94;5070455;28;20225;-71
2023/03/29 03:02:12;;;;;;;5.40;2.70;;;4.30;99.90;;;-141.84;57.13;19358.63;5070732;28;20232;-70
2023/03/29 03:04:40;;;;;;;5.17;2.40;;;4.40;99.90;;;-141.84;57.69;19356.59;5070593;28;20230;-70
2023/03/29 03:07:08;;;;;;;3.30;1.97;;;4.40;99.90;;;-141.84;57.72;19326.09;5070355;28;20775;-71
2023/03/29 03:09:37;;;;;;;5.17;2.67;;;4.40;99.90;;;-141.84;58.42;19293.59;5071438;28;20214;-72
2023/03/29 03:12:06;;;;;;;4.40;2.50;;;4.40;99.90;;;-141.84;58.33;19305.78;5070722;28;20732;-72
2023/03/29 03:14:34;;;;;;;3.87;2.40;;;4.30;99.90;;;-141.84;57.76;19305.78;5070290;28;20223;-71
2023/03/29 03:17:04;;;;;;;4.13;2.03;;;4.30;99.90;;;-141.84;58.00;19291.56;5070329;28;20234;-71
2023/03/29 03:19:32;;;;;;;4.73;2.60;;;4.30;99.90;;;-141.84;58.14;19317.97;5070337;28;20217;-70
2023/03/29 03:22:00;;;;;;;3.33;1.97;;;4.20;99.90;;;-141.84;57.54;19305.78;5058688;28;20301;-72
2023/03/29 03:24:29;;;;;;;4.13;2.10;;;4.30;99.90;;;-141.84;58.14;19273.28;5050630;28;20767;-71
2023/03/29 03:26:57;;;;;;;3.90;2.37;;;4.30;99.90;;;-141.84;58.14;19285.47;5050174;28;20738;-71
2023/03/29 03:29:27;;;;;;;3.67;2.70;;;4.30;99.90;;;-141.84;58.20;19293.59;5050343;28;20231;-71
2023/03/29 03:31:55;;;;;;;4.20;2.70;;;4.30;99.90;;;-141.84;58.23;19330.16;5049960;28;20234;-71
2023/03/29 03:34:26;;;;;;;4.43;2.67;;;4.30;99.90;;;-141.84;57.35;19354.56;5051594;28;20221;-70
2023/03/29 03:36:54;;;;;;;8.00;2.77;;;4.40;99.90;;;-141.84;56.84;19352.53;5051997;28;20573;-72
2023/03/29 03:39:22;;;;;;;5.97;2.63;;;4.50;99.90;;;-141.84;57.76;19346.44;5051892;28;20696;-71
2023/03/29 03:41:51;;;;;;;4.07;2.47;;;4.50;99.90;;;-141.84;57.16;19397.22;5055310;28;20243;-73
2023/03/29 03:44:19;;;;;;;4.57;2.00;;;4.50;99.90;;;-141.84;57.67;19342.34;5066032;28;20315;-73
2023/03/29 03:46:47;;;;;;;4.17;2.13;;;4.50;99.90;;;-141.84;58.01;19330.16;5074195;28;20230;-71
2023/03/29 03:49:15;;;;;;;5.07;2.90;;;4.40;99.90;;;-141.84;58.14;19311.88;5075691;28;20230;-73
2023/03/29 03:51:45;;;;;;;5.30;2.40;;;4.40;99.90;;;-141.84;58.80;19313.91;5075483;28;20205;-71
2023/03/29 03:54:13;;;;;;;5.33;2.73;;;4.40;99.90;;;-141.84;58.54;19289.53;5075578;28;20581;-72
2023/03/29 03:56:42;;;;;;;5.27;2.50;;;4.40;99.90;;;-141.84;57.55;19370.81;5074839;28;20231;-72
2023/03/29 03:59:10;;;;;;;5.97;2.50;;;4.50;99.90;;;-141.84;58.06;19317.97;5074148;28;20231;-71
2023/03/29 04:01:42;;;;;;;5.30;2.77;;;4.50;99.90;;;-141.84;58.18;19307.81;5072983;28;20222;-74
2023/03/29 04:04:10;;;;;;;2.93;2.37;;;4.50;99.90;;;-141.84;57.50;19358.63;5072523;28;20306;-72
2023/03/29 04:06:39;;;;;;;4.57;2.83;;;4.50;99.90;;;-141.84;57.36;19366.75;5074354;28;20220;-71
2023/03/29 04:09:12;;;;;;;6.23;2.10;;;4.60;99.90;;;-141.84;56.65;19362.69;5076469;28;20301;-71
2023/03/29 04:11:40;;;;;;;5.00;2.50;;;4.70;99.90;;;-141.84;56.98;19383.00;5076240;28;20229;-71
2023/03/29 04:14:09;;;;;;;2.60;2.00;;;4.70;99.90;;;-141.84;57.03;19317.97;5075387;28;20222;-71
2023/03/29 04:16:37;;;;;;;6.63;2.67;;;4.70;99.90;;;-141.84;57.05;19362.69;5074863;28;20232;-71
2023/03/29 04:19:05;;;;;;;4.20;2.40;;;4.70;99.90;;;-141.84;58.03;19309.84;5075763;28;20224;-71
2023/03/29 04:21:33;;;;;;;4.77;2.40;;;4.60;99.90;;;-141.84;58.57;19317.97;5067451;28;20199;-70
2023/03/29 04:24:01;;;;;;;5.20;2.10;;;4.60;99.90;;;-141.84;59.65;19330.16;5054750;28;20579;-71
2023/03/29 04:26:31;;;;;;;4.03;2.33;;;4.60;99.90;;;-141.84;60.06;19336.25;5054469;28;20229;-71
2023/03/29 04:28:59;;;;;;;3.97;2.73;;;4.60;99.90;;;-141.84;60.35;19334.22;5054117;28;20245;-70
2023/03/29 04:31:27;;;;;;;4.43;2.70;;;4.50;99.90;;;-141.84;60.23;19366.75;5070315;28;20226;-71
2023/03/29 04:33:55;;;;;;;6.13;2.43;;;4.60;99.90;;;-141.84;60.29;19303.75;5074677;28;20199;-71
2023/03/29 04:36:27;;;;;;;6.40;2.30;;;4.60;99.90;;;-141.84;61.02;19332.19;5068327;28;20208;-71
2023/03/29 04:38:55;;;;;;;4.83;2.60;;;4.60;99.90;;;-141.84;61.13;19309.84;5054814;28;20226;-72
2023/03/29 04:41:24;;;;;;;7.83;2.70;;;4.60;99.90;;;-141.84;61.80;19320.00;5071959;28;20223;-71
2023/03/29 04:43:54;;;;;;;3.60;2.50;;;4.60;99.90;;;-141.84;61.50;19315.94;5078162;28;20713;-72
2023/03/29 04:46:25;;;;;;;3.57;2.10;;;4.70;99.90;;;-141.84;61.39;19350.50;5062995;28;20338;-71
2023/03/29 04:48:54;;;;;;;5.00;2.77;;;4.70;99.90;;;-141.84;62.39;19330.16;5068569;28;20268;-70
2023/03/29 04:51:23;;;;;;;5.33;2.73;;;4.80;99.90;;;-141.84;63.13;19317.97;5074283;28;20210;-71
2023/03/29 04:53:51;;;;;;;6.63;2.50;;;4.70;99.90;;;-141.84;62.48;19315.94;5074156;28;20286;-72
2023/03/29 04:56:19;;;;;;;6.70;2.40;;;4.70;99.90;;;-141.84;63.16;19340.31;5073444;28;20714;-59
2023/03/29 04:58:48;;;;;;;4.60;2.50;;;4.70;99.90;;;-141.84;63.39;19289.53;5073193;28;20235;-59
2023/03/29 05:01:17;;;;;;;4.00;2.57;;;4.70;99.90;;;-141.84;63.85;19287.50;5072593;28;20233;-58
2023/03/29 05:03:46;;;;;;;5.33;2.63;;;4.60;99.90;;;-141.84;61.82;19372.84;5073162;28;20204;-58
2023/03/29 05:06:14;;;;;;;5.03;2.70;;;4.70;99.90;;;-141.84;62.49;19315.94;5073567;28;20587;-59
2023/03/29 05:08:43;;;;;;;7.23;3.10;;;4.70;99.90;;;-141.84;62.75;19364.72;5072931;28;20227;-59
2023/03/29 05:11:12;;;;;;;4.37;2.73;;;4.70;99.90;;;-141.84;61.92;19336.25;5072897;28;20856;-59
2023/03/29 05:13:41;;;;;;;2.87;2.47;;;4.80;99.90;;;-141.84;62.12;19356.59;5072667;28;20245;-60
2023/03/29 05:16:10;;;;;;;3.67;2.40;;;4.80;99.90;;;-141.84;63.13;19366.75;5072588;28;20250;-59
2023/03/29 05:18:40;;;;;;;4.17;2.60;;;4.80;99.90;;;-141.84;62.89;19362.69;5072639;28;20204;-58
2023/03/29 05:21:08;;;;;;;5.37;2.63;;;4.80;99.90;;;-141.84;63.19;19326.09;5072822;28;20224;-56
2023/03/29 05:23:37;;;;;;;3.73;2.53;;;4.80;99.90;;;-141.84;62.58;19330.16;5072301;28;20235;-57
2023/03/29 05:26:06;;;;;;;3.07;2.70;;;4.80;99.90;;;-141.84;63.04;19334.22;5072691;28;20232;-58
2023/03/29 05:28:35;;;;;;;6.47;2.60;;;4.80;99.90;;;-141.84;61.96;19356.59;5072520;28;20761;-55
2023/03/29 05:31:05;;;;;;;3.73;2.77;;;4.90;99.90;;;-141.84;62.30;19309.84;5072529;28;20232;-57
2023/03/29 05:33:34;;;;;;;3.93;2.80;;;4.90;99.90;;;-141.84;62.85;19364.72;5059010;28;20208;-58
2023/03/29 05:36:07;;;;;;;4.33;2.80;;;4.90;99.90;;;-141.84;62.23;19358.63;5057392;28;20221;-59
2023/03/29 05:38:37;;;;;;;4.40;2.87;;;5.00;99.90;;;-141.84;62.21;19344.41;5072368;28;20231;-57
2023/03/29 05:41:06;;;;;;;5.27;2.67;;;5.00;99.90;;;-141.84;62.53;19303.75;5072298;28;20239;-59
2023/03/29 05:43:35;;;;;;;5.30;2.73;;;5.00;99.90;;;-141.84;60.94;19360.66;5072439;28;20227;-59
2023/03/29 05:46:04;;;;;;;6.20;2.77;;;5.10;99.90;;;-141.84;61.46;19360.66;5072025;28;20235;-56
2023/03/29 05:48:33;;;;;;;4.67;2.97;;;5.20;99.90;;;-141.84;61.64;19315.94;5071800;28;20259;-58
2023/03/29 05:51:03;;;;;;;3.90;2.60;;;5.20;99.90;;;-141.84;60.02;19383.00;5071937;28;20227;-57
2023/03/29 05:53:32;;;;;;;5.17;2.93;;;5.30;99.90;;;-141.84;59.55;19423.66;5072201;28;20296;-56
2023/03/29 05:56:00;;;;;;;7.23;3.00;;;5.40;99.90;;;-141.84;59.77;19405.34;5072403;28;20312;-59
2023/03/29 05:58:29;;;;;;;3.90;2.50;;;5.40;99.90;;;-141.84;59.85;19391.13;5072130;28;20246;-55
2023/03/29 06:00:59;;;;;;;4.33;2.67;;;5.40;99.90;;;-141.84;60.09;19368.78;5072195;28;20212;-56
2023/03/29 06:03:28;;;;;;;5.03;2.83;;;5.50;99.90;;;-141.84;60.73;19397.22;5072179;28;20635;-58
2023/03/29 06:06:01;;;;;;;4.17;3.10;;;5.40;99.90;;;-141.84;60.62;19358.63;5071939;28;20263;-56
2023/03/29 06:08:31;;;;;;;5.07;3.60;;;5.50;99.90;;;-141.84;61.20;19387.06;5071629;28;20224;-58
2023/03/29 06:11:00;;;;;;;4.67;3.70;;;5.50;99.90;;;-141.84;61.24;19370.81;5072230;28;20257;-58
2023/03/29 06:13:33;;;;;;;4.03;3.50;;;5.50;99.90;;;-141.84;60.59;19391.13;5053132;28;20251;-57
2023/03/29 06:16:03;;;;;;;11.13;4.40;;;5.60;99.90;;;-141.84;59.99;19437.88;5071762;28;20253;-56
2023/03/29 06:18:31;;;;;;;5.53;3.60;;;5.70;99.90;;;-141.84;60.80;19431.78;5071701;28;20676;-55
2023/03/29 06:21:00;;;;;;;4.60;3.67;;;5.70;99.90;;;-141.84;61.44;19409.41;5071340;28;20220;-54
2023/03/29 06:23:30;;;;;;;4.37;3.53;;;5.70;99.90;;;-141.84;61.45;19405.34;5071423;28;20297;-57
2023/03/29 06:25:59;;;;;;;6.63;3.90;;;5.70;99.90;;;-141.84;61.40;19407.38;5070419;28;20239;-57
2023/03/29 06:28:27;;;;;;;4.60;3.57;;;5.70;99.90;;;-141.84;62.03;19391.13;5070989;28;20232;-55
2023/03/29 06:31:00;;;;;;;4.93;3.77;;;5.70;99.90;;;-141.84;61.68;19419.59;5072349;28;20660;-59
2023/03/29 06:33:29;;;;;;;5.63;3.67;;;5.70;99.90;;;-141.84;62.21;19417.56;5072015;28;20203;-56
2023/03/29 06:35:58;;;;;;;6.53;4.40;;;5.70;99.90;;;-141.84;62.88;19409.41;5071397;28;20686;-57
2023/03/29 06:38:27;;;;;;;6.80;3.93;;;5.70;99.90;;;-141.84;63.31;19397.22;5071248;28;20228;-58
2023/03/29 06:41:02;;;;;;;5.27;4.53;;;5.70;99.90;;;-141.84;62.32;19433.81;5071192;28;20236;-57
2023/03/29 06:43:31;;;;;;;5.30;4.60;;;5.70;99.90;;;-141.84;61.95;19446.00;5070854;28;20233;-59
2023/03/29 06:46:01;;;;;;;6.60;3.97;;;5.90;99.90;;;-141.84;61.98;19429.75;5070784;28;20219;-58
2023/03/29 06:48:30;;;;;;;5.07;4.30;;;5.90;99.90;;;-141.84;61.60;19427.72;5070953;28;20200;-58
2023/03/29 06:50:58;;;;;;;6.57;4.47;;;6.10;99.90;;;-141.84;61.42;19466.31;5070855;28;20246;-57
2023/03/29 06:53:27;;;;;;;5.90;4.30;;;6.10;99.90;;;-141.84;62.17;19433.81;5070796;28;20231;-58
2023/03/29 06:55:55;;;;;;;5.00;4.37;;;6.10;99.90;;;-141.84;61.99;19435.84;5071178;28;20242;-60
2023/03/29 06:58:25;;;;;;;5.53;4.50;;;6.10;99.90;;;-141.84;61.95;19460.22;5019382;28;20303;-57
2023/03/29 07:00:53;;;;;;;5.67;4.40;;;6.10;99.90;;;-141.84;61.88;19435.84;5069594;28;20204;-57
2023/03/29 07:03:22;;;;;;;7.17;4.70;;;6.20;99.90;;;-141.84;62.01;19456.16;5071238;28;20205;-58
2023/03/29 07:05:50;;;;;;;5.57;4.63;;;6.20;99.90;;;-141.84;62.23;19462.25;5071011;28;20224;-59
2023/03/29 07:08:19;;;;;;;6.13;4.67;;;6.30;99.90;;;-141.84;60.88;19448.03;5070403;28;20231;-57
2023/03/29 07:10:51;;;;;;;5.73;4.90;;;6.40;99.90;;;-141.84;60.61;19486.66;5070706;28;20609;-59
2023/03/29 07:13:19;;;;;;;6.30;4.80;;;6.60;99.90;;;-141.84;61.33;19500.88;5070769;28;20246;-57
2023/03/29 07:15:49;;;;;;;8.97;5.10;;;6.50;99.90;;;-141.84;61.29;19500.88;5070591;28;20204;-57
2023/03/29 07:18:18;;;;;;;6.57;4.80;;;6.50;99.90;;;-141.84;61.38;19488.69;5071223;28;20208;-54
2023/03/29 07:20:47;;;;;;;5.83;4.93;;;6.50;99.90;;;-141.84;61.65;19496.81;5068377;28;20225;-53
2023/03/29 07:23:16;;;;;;;7.20;4.97;;;6.50;99.90;;;-141.84;60.66;19513.06;5069568;28;20331;-53
2023/03/29 07:25:45;;;;;;;7.50;5.23;;;6.60;99.90;;;-141.84;60.75;19502.91;5069904;28;20231;-52
2023/03/29 07:28:14;;;;;;;6.47;4.87;;;6.70;99.90;;;-141.84;61.15;19513.06;5069492;28;20304;-52
2023/03/29 07:30:42;;;;;;;10.47;5.27;;;6.70;99.90;;;-141.84;61.13;19511.03;5069683;28;20235;-52
2023/03/29 07:33:12;;;;;;;6.87;5.33;;;6.80;99.90;;;-141.84;60.56;19553.72;5070484;28;20327;-52
2023/03/29 07:35:42;;;;;;;6.50;4.83;;;6.90;99.90;;;-141.84;60.57;19547.59;5069876;28;20232;-57
2023/03/29 07:38:10;;;;;;;6.20;4.83;;;7.00;99.90;;;-141.84;60.24;19535.41;5069819;28;20248;-54
2023/03/29 07:40:38;;;;;;;5.40;4.90;;;7.00;99.90;;;-141.84;60.50;19484.59;5069021;28;20235;-53
2023/03/29 07:43:09;;;;;;;6.53;4.77;;;7.10;99.90;;;-141.84;61.31;19506.97;5069655;28;20761;-55
2023/03/29 07:45:39;;;;;;;5.60;5.10;;;7.00;99.90;;;-141.84;61.48;19545.56;5064102;28;20223;-50
2023/03/29 07:48:08;;;;;;;6.20;5.57;;;6.90;99.90;;;-141.84;61.53;19478.50;5058060;28;20224;-53
2023/03/29 07:50:38;;;;;;;6.37;5.13;;;6.80;99.90;;;-141.84;61.69;19460.22;5069565;28;20224;-56
2023/03/29 07:53:07;;;;;;;7.07;5.37;;;6.80;99.90;;;-141.84;61.79;19498.84;5069765;28;20227;-52
2023/03/29 07:55:36;;;;;;;6.37;5.33;;;6.80;99.90;;;-141.84;60.92;19569.97;5070190;28;20251;-53
2023/03/29 07:58:05;;;;;;;7.30;5.20;;;6.90;99.90;;;-141.84;60.94;19541.50;5069834;28;20225;-52
2023/03/29 08:00:33;;;;;;;5.90;4.80;;;7.00;99.90;;;-141.84;61.51;19509.00;5069617;28;20197;-53
2023/03/29 08:03:02;;;;;;;8.27;5.30;;;7.00;99.90;;;-141.84;61.69;19525.25;5069390;28;20342;-54
2023/03/29 08:05:30;;;;;;;7.03;5.33;;;7.10;99.90;;;-141.84;60.51;19567.94;5069692;28;20228;-51
2023/03/29 08:08:10;;;;;;;6.80;5.20;;;7.10;99.90;;;-141.84;60.21;19582.16;5069925;28;20306;-53
2023/03/29 08:10:39;;;;;;;9.60;5.77;;;7.40;99.90;;;-141.84;59.62;19567.94;5069825;28;20235;-52
2023/03/29 08:13:09;;;;;;;7.90;5.40;;;7.40;99.90;;;-141.84;60.07;19578.09;5069383;28;20224;-53
2023/03/29 08:15:38;;;;;;;7.20;5.60;;;7.30;99.90;;;-141.84;60.63;19533.38;5070441;28;20186;-55
2023/03/29 08:18:07;;;;;;;9.23;5.87;;;7.30;99.90;;;-141.84;60.57;19557.78;5069690;28;20298;-54
2023/03/29 08:20:36;;;;;;;6.57;5.57;;;7.20;99.90;;;-141.84;59.27;19569.97;5069078;28;20266;-52
2023/03/29 08:23:05;;;;;;;6.17;5.40;;;7.40;99.90;;;-141.84;59.48;19610.59;5068973;28;20239;-48
2023/03/29 08:25:35;;;;;;;7.90;5.50;;;7.50;99.90;;;-141.84;59.21;19594.34;5071461;28;20316;-52
2023/03/29 08:28:03;;;;;;;7.07;5.97;;;7.50;99.90;;;-141.84;59.65;19557.78;5069186;28;20231;-54
2023/03/29 08:30:32;;;;;;;5.87;4.90;;;7.50;99.90;;;-141.84;59.25;19569.97;5069248;28;20228;-54
2023/03/29 08:33:00;;;;;;;6.63;5.40;;;7.60;99.90;;;-141.84;58.96;19639.06;5069328;28;20772;-54
2023/03/29 08:35:28;;;;;;;8.00;5.70;;;7.70;99.90;;;-141.84;59.27;19612.63;5065941;28;20395;-54
2023/03/29 08:37:56;;;;;;;6.37;5.60;;;7.70;99.90;;;-141.84;58.21;19594.34;5069121;28;20220;-50
2023/03/29 08:40:30;;;;;;;6.47;5.73;;;7.80;99.90;;;-141.84;58.95;19643.13;5069281;28;20224;-52
2023/03/29 08:43:16;;;;;;;5.90;5.30;;;7.80;99.90;;;-141.84;58.37;19643.13;5069503;28;20184;-55
2023/03/29 08:46:00;;;;;;;6.80;5.17;;;8.00;99.90;;;-141.84;56.87;19716.28;5069021;28;20193;-54
2023/03/29 08:48:33;;;;;;;7.13;5.40;;;8.10;99.90;;;-141.84;56.34;19724.41;5069600;28;20748;-52
2023/03/29 08:51:08;;;;;;;10.27;6.03;;;8.40;99.90;;;-141.84;56.27;19698.00;5068916;28;20240;-53
2023/03/29 08:53:44;;;;;;;8.03;5.63;;;8.50;99.90;;;-141.84;56.31;19712.22;5072900;28;20220;-52
2023/03/29 08:56:18;;;;;;;8.07;5.20;;;8.60;99.90;;;-141.84;56.17;19742.72;5073607;28;20277;-53
2023/03/29 08:58:52;;;;;;;6.23;5.20;;;8.70;99.90;;;-141.84;55.59;19738.66;5072872;28;20718;-56
2023/03/29 09:01:22;;;;;;;6.27;5.67;;;8.80;99.90;;;-141.84;55.71;19738.66;5072525;28;20229;-52
2023/03/29 09:04:03;;;;;;;8.50;5.77;;;8.70;99.90;;;-141.84;56.29;19724.41;5073018;28;20185;-52
2023/03/29 09:06:32;;;;;;;6.37;4.80;;;8.70;99.90;;;-141.84;56.50;19718.31;5073414;28;20196;-53
2023/03/29 09:09:01;;;;;;;8.07;5.43;;;8.60;99.90;;;-141.84;56.60;19700.03;5072726;28;20229;-50
2023/03/29 09:12:08;;;;;;;6.90;5.40;;;8.50;99.90;;;-141.84;56.55;19708.16;5072270;28;20915;-51
2023/03/29 09:15:03;;;;;;;7.80;5.40;;;8.60;99.90;;;-141.84;56.30;19659.38;5032386;28;20738;-51
2023/03/29 09:17:48;;;;;;;6.70;5.40;;;8.50;99.90;;;-141.84;56.87;19712.22;5066982;28;20221;-53
2023/03/29 09:20:39;;;;;;;6.60;5.47;;;8.50;99.90;;;-141.84;56.47;19700.03;5052114;28;20914;-47
2023/03/29 09:23:40;;;;;;;6.43;5.57;;;8.60;99.90;;;-141.84;56.67;19706.13;5069848;28;20232;-53
2023/03/29 09:26:20;;;;;;;7.73;5.40;;;8.60;99.90;;;-141.84;56.51;19708.16;5072198;28;20707;-51
2023/03/29 09:29:03;;;;;;;6.87;5.70;;;8.70;99.90;;;-141.84;56.39;19722.38;5072011;28;20239;-52
2023/03/29 09:31:38;;;;;;;7.63;6.53;;;8.70;99.90;;;-141.84;57.13;19708.16;5071604;28;20255;-49
2023/03/29 09:34:15;;;;;;;8.17;5.83;;;8.60;99.90;;;-141.84;56.75;19714.25;5071720;28;20553;-54
2023/03/29 09:36:52;;;;;;;6.57;5.67;;;8.70;99.90;;;-141.84;56.93;19702.06;5072155;28;20211;-53
2023/03/29 09:39:22;;;;;;;7.70;6.10;;;8.60;99.90;;;-141.84;56.92;19748.81;5072708;28;20189;-51
2023/03/29 09:41:57;;;;;;;7.20;5.80;;;8.70;99.90;;;-141.84;56.05;19761.00;5051369;28;20694;-53
2023/03/29 09:44:33;;;;;;;7.60;6.20;;;8.90;99.90;;;-141.84;55.85;19785.38;5061612;28;20228;-52
2023/03/29 09:47:12;;;;;;;7.37;6.23;;;9.00;99.90;;;-141.84;55.42;19789.44;5071412;28;20224;-52
2023/03/29 09:49:46;;;;;;;8.47;6.00;;;8.80;99.90;;;-141.84;55.00;19828.06;5051751;28;20320;-54
2023/03/29 09:52:18;;;;;;;7.30;6.03;;;9.20;99.90;;;-141.84;55.14;19801.66;5051284;28;20221;-52
2023/03/29 09:54:47;;;;;;;6.40;5.57;;;9.20;99.90;;;-141.84;54.43;19777.25;5053010;28;20185;-54
2023/03/29 09:57:18;;;;;;;8.70;5.73;;;9.30;99.90;;;-141.84;53.94;19824.00;5071853;28;20639;-53
2023/03/29 09:59:51;;;;;;;5.60;5.00;;;9.50;99.90;;;-141.84;53.53;19854.50;5071448;28;20659;-55
2023/03/29 10:02:21;;;;;;;7.13;5.10;;;9.70;99.90;;;-141.84;52.80;19891.06;5070858;28;20783;-53
2023/03/29 10:04:57;;;;;;;6.50;5.50;;;9.90;99.90;;;-141.84;53.01;19880.91;5058097;28;20225;-78
2023/03/29 10:07:43;;;;;;;6.03;5.10;;;9.90;99.90;;;-141.84;52.13;19947.97;5057164;28;20212;-71
2023/03/29 10:10:21;;;;;;;8.63;5.23;;;10.20;99.90;;;-141.84;51.74;19931.72;5071258;28;20228;-76
2023/03/29 10:12:54;;;;;;;6.57;5.03;;;10.30;99.90;;;-141.84;51.09;19992.69;5071815;28;20220;-74
2023/03/29 10:15:23;;;;;;;5.70;5.07;;;10.50;99.90;;;-141.84;51.63;20015.03;5071379;28;20227;-69
2023/03/29 10:18:02;;;;;;;5.60;5.00;;;10.60;99.90;;;-141.84;51.18;20023.19;5071681;28;20242;-69
2023/03/29 10:20:30;;;;;;;6.17;5.20;;;10.70;99.90;;;-141.84;49.65;20074.00;5071720;28;20189;-76
2023/03/29 10:22:59;;;;;;;7.07;4.90;;;11.10;99.90;;;-141.84;50.07;20029.28;5071517;28;20251;-78
2023/03/29 10:25:32;;;;;;;4.90;4.40;;;11.10;99.90;;;-141.84;50.27;20017.09;5072199;28;20232;-79
2023/03/29 10:28:06;;;;;;;4.77;4.27;;;11.10;99.90;;;-141.84;49.96;20039.44;5072461;28;20647;-79
2023/03/29 10:30:37;;;;;;;6.50;4.63;;;11.10;99.90;;;-141.84;48.81;20114.63;5071800;28;20228;-79